Time,TemperatureF,DewpointF,PressureIn,WindDirection,WindDirectionDegrees,WindSpeedMPH,WindSpeedGustMPH,Humidity,HourlyPrecipIn,Conditions,Clouds,dailyrainin,SoftwareType,DateUTC
2013-07-02 00:00:00,72.5,70.7,30.05,North,349,0.0,15.0,94,0.00,,,0.00,Wunderground v.1.15,2013-07-02 04:00:00,
2013-07-02 00:05:00,72.5,70.7,30.05,North,349,0.0,15.0,94,0.00,,,0.00,Wunderground v.1.15,2013-07-02 04:05:00,
2013-07-02 00:10:00,72.5,70.7,30.05,North,349,0.0,15.0,94,0.00,,,0.00,Wunderground v.1.15,2013-07-02 04:10:00,
2013-07-02 00:15:00,72.5,70.7,30.05,North,349,0.0,15.0,94,0.00,,,0.00,Wunderground v.1.15,2013-07-02 04:15:00,
2013-07-02 00:20:00,72.5,70.7,30.05,North,349,0.0,15.0,94,0.00,,,0.00,Wunderground v.1.15,2013-07-02 04:20:00,
2013-07-02 00:25:00,72.5,70.7,30.05,North,349,0.0,15.0,94,0.00,,,0.01,Wunderground v.1.15,2013-07-02 04:25:00,
2013-07-02 00:30:00,72.5,70.7,30.05,North,349,0.0,15.0,94,0.00,,,0.01,Wunderground v.1.15,2013-07-02 04:30:00,
2013-07-02 00:35:00,72.6,70.8,30.05,North,349,0.0,15.0,94,0.00,,,0.01,Wunderground v.1.15,2013-07-02 04:35:00,
2013-07-02 00:40:00,72.6,70.8,30.05,North,349,0.0,15.0,94,0.00,,,0.01,Wunderground v.1.15,2013-07-02 04:40:00,
2013-07-02 00:45:00,72.7,70.9,30.05,North,349,0.0,15.0,94,0.00,,,0.01,Wunderground v.1.15,2013-07-02 04:45:00,
2013-07-02 00:50:00,72.6,70.8,30.05,North,349,0.0,15.0,94,0.00,,,0.01,Wunderground v.1.15,2013-07-02 04:50:00,
2013-07-02 00:55:00,72.7,71.2,30.05,NNW,347,0.0,15.0,95,0.00,,,0.01,Wunderground v.1.15,2013-07-02 04:55:00,
2013-07-02 01:00:00,72.7,71.2,30.04,NNW,333,0.0,15.0,95,0.00,,,0.01,Wunderground v.1.15,2013-07-02 05:00:00,
2013-07-02 01:05:00,72.6,71.1,30.04,NNW,333,0.0,15.0,95,0.00,,,0.01,Wunderground v.1.15,2013-07-02 05:05:00,
2013-07-02 01:10:00,72.6,71.1,30.04,NW,324,0.0,15.0,95,0.00,,,0.01,Wunderground v.1.15,2013-07-02 05:10:00,
2013-07-02 01:15:00,72.6,71.1,30.04,NW,324,0.0,15.0,95,0.00,,,0.01,Wunderground v.1.15,2013-07-02 05:15:00,
2013-07-02 01:20:00,72.5,71.0,30.04,NW,324,0.0,15.0,95,0.00,,,0.01,Wunderground v.1.15,2013-07-02 05:20:00,
2013-07-02 01:25:00,72.6,71.1,30.04,NW,324,0.0,15.0,95,0.00,,,0.01,Wunderground v.1.15,2013-07-02 05:25:00,
2013-07-02 01:35:00,72.5,71.0,30.04,NW,324,0.0,15.0,95,0.00,,,0.01,Wunderground v.1.15,2013-07-02 05:35:00,
2013-07-02 01:40:00,72.6,71.1,30.03,NW,324,0.0,15.0,95,0.00,,,0.01,Wunderground v.1.15,2013-07-02 05:40:00,
2013-07-02 01:45:00,72.6,71.1,30.03,NW,324,0.0,15.0,95,0.00,,,0.01,Wunderground v.1.15,2013-07-02 05:45:00,
2013-07-02 01:50:00,72.6,71.1,30.03,NW,324,0.0,15.0,95,0.00,,,0.01,Wunderground v.1.15,2013-07-02 05:50:00,
2013-07-02 01:55:00,72.6,71.1,30.03,NW,324,0.0,15.0,95,0.00,,,0.01,Wunderground v.1.15,2013-07-02 05:55:00,
2013-07-02 02:00:00,72.6,71.1,30.03,NW,324,0.0,15.0,95,0.00,,,0.01,Wunderground v.1.15,2013-07-02 06:00:00,
2013-07-02 02:10:00,72.8,71.3,30.03,NW,324,0.0,15.0,95,0.00,,,0.01,Wunderground v.1.15,2013-07-02 06:10:00,
2013-07-02 02:15:00,72.8,71.3,30.03,NW,324,0.0,15.0,95,0.00,,,0.02,Wunderground v.1.15,2013-07-02 06:15:00,
2013-07-02 02:20:00,72.9,71.4,30.02,NW,324,0.0,15.0,95,0.00,,,0.02,Wunderground v.1.15,2013-07-02 06:20:00,
2013-07-02 02:25:00,73.0,71.5,30.02,NW,324,0.0,15.0,95,0.00,,,0.02,Wunderground v.1.15,2013-07-02 06:25:00,
2013-07-02 02:30:00,73.1,71.6,30.02,NW,324,0.0,15.0,95,0.00,,,0.02,Wunderground v.1.15,2013-07-02 06:30:00,
2013-07-02 02:35:00,73.2,71.7,30.02,NW,324,0.0,15.0,95,0.00,,,0.02,Wunderground v.1.15,2013-07-02 06:35:00,
2013-07-02 02:40:00,73.3,71.8,30.03,WNW,287,0.0,15.0,95,0.00,,,0.02,Wunderground v.1.15,2013-07-02 06:40:00,
2013-07-02 02:45:00,73.3,71.8,30.03,WNW,287,0.0,15.0,95,0.00,,,0.02,Wunderground v.1.15,2013-07-02 06:45:00,
2013-07-02 02:50:00,73.4,71.9,30.03,WNW,287,0.0,15.0,95,0.00,,,0.02,Wunderground v.1.15,2013-07-02 06:50:00,
2013-07-02 02:55:00,73.4,71.9,30.03,WNW,287,0.0,15.0,95,0.00,,,0.02,Wunderground v.1.15,2013-07-02 06:55:00,
2013-07-02 03:05:00,73.4,71.9,30.02,WNW,287,0.0,15.0,95,0.00,,,0.02,Wunderground v.1.15,2013-07-02 07:05:00,
2013-07-02 03:10:00,73.4,71.9,30.02,WNW,287,0.0,15.0,95,0.00,,,0.02,Wunderground v.1.15,2013-07-02 07:10:00,
2013-07-02 03:15:00,73.4,71.9,30.02,WNW,287,0.0,15.0,95,0.00,,,0.02,Wunderground v.1.15,2013-07-02 07:15:00,
2013-07-02 03:20:00,73.4,71.9,30.02,WNW,287,0.0,15.0,95,0.00,,,0.02,Wunderground v.1.15,2013-07-02 07:20:00,
2013-07-02 03:25:00,73.4,71.9,30.02,WNW,287,0.0,15.0,95,0.00,,,0.02,Wunderground v.1.15,2013-07-02 07:25:00,
2013-07-02 03:30:00,73.4,71.9,30.02,WNW,287,0.0,15.0,95,0.00,,,0.02,Wunderground v.1.15,2013-07-02 07:30:00,
2013-07-02 03:35:00,73.3,71.8,30.02,WNW,287,0.0,15.0,95,0.00,,,0.02,Wunderground v.1.15,2013-07-02 07:35:00,
2013-07-02 03:45:00,73.3,71.8,30.02,WNW,287,0.0,15.0,95,0.00,,,0.02,Wunderground v.1.15,2013-07-02 07:45:00,
2013-07-02 03:50:00,73.2,71.7,30.02,WNW,287,0.0,15.0,95,0.00,,,0.02,Wunderground v.1.15,2013-07-02 07:50:00,
2013-07-02 03:55:00,73.2,71.7,30.02,WNW,287,0.0,15.0,95,0.00,,,0.02,Wunderground v.1.15,2013-07-02 07:55:00,
2013-07-02 04:00:00,73.1,71.6,30.02,WNW,287,0.0,15.0,95,0.00,,,0.02,Wunderground v.1.15,2013-07-02 08:00:00,
2013-07-02 04:05:00,73.1,71.6,30.02,WNW,287,0.0,15.0,95,0.00,,,0.02,Wunderground v.1.15,2013-07-02 08:05:00,
2013-07-02 04:10:00,73.2,72.0,30.02,WNW,287,0.0,15.0,96,0.00,,,0.02,Wunderground v.1.15,2013-07-02 08:10:00,
2013-07-02 04:15:00,73.2,72.0,30.02,WNW,287,0.0,15.0,96,0.00,,,0.02,Wunderground v.1.15,2013-07-02 08:15:00,
2013-07-02 04:20:00,73.2,72.0,30.02,WNW,287,0.0,15.0,96,0.00,,,0.02,Wunderground v.1.15,2013-07-02 08:20:00,
2013-07-02 04:25:00,73.2,71.7,30.02,WNW,287,0.0,15.0,95,0.00,,,0.02,Wunderground v.1.15,2013-07-02 08:25:00,
2013-07-02 04:30:00,73.2,72.0,30.02,WNW,287,0.0,15.0,96,0.00,,,0.02,Wunderground v.1.15,2013-07-02 08:30:00,
2013-07-02 04:35:00,73.2,72.0,30.02,WNW,287,0.0,15.0,96,0.00,,,0.02,Wunderground v.1.15,2013-07-02 08:35:00,
2013-07-02 04:40:00,73.2,72.0,30.02,WNW,287,0.0,15.0,96,0.00,,,0.02,Wunderground v.1.15,2013-07-02 08:40:00,
2013-07-02 04:45:00,73.1,71.9,30.02,WNW,287,0.0,15.0,96,0.00,,,0.02,Wunderground v.1.15,2013-07-02 08:45:00,
2013-07-02 04:50:00,73.1,71.9,30.02,WNW,287,0.0,15.0,96,0.00,,,0.02,Wunderground v.1.15,2013-07-02 08:50:00,
2013-07-02 04:55:00,73.1,71.9,30.02,WNW,287,0.0,15.0,96,0.00,,,0.02,Wunderground v.1.15,2013-07-02 08:55:00,
2013-07-02 05:00:00,73.1,71.9,30.02,WNW,287,0.0,15.0,96,0.00,,,0.02,Wunderground v.1.15,2013-07-02 09:00:00,
2013-07-02 05:05:00,73.1,71.9,30.02,WNW,287,0.0,15.0,96,0.00,,,0.02,Wunderground v.1.15,2013-07-02 09:05:00,
2013-07-02 05:10:00,73.1,71.9,30.02,WNW,287,0.0,15.0,96,0.00,,,0.02,Wunderground v.1.15,2013-07-02 09:10:00,
2013-07-02 05:15:00,73.0,71.8,30.02,WNW,287,0.0,15.0,96,0.00,,,0.02,Wunderground v.1.15,2013-07-02 09:15:00,
2013-07-02 05:20:00,73.0,71.8,30.02,WNW,287,0.0,15.0,96,0.00,,,0.02,Wunderground v.1.15,2013-07-02 09:20:00,
2013-07-02 05:25:00,73.0,71.8,30.02,WNW,287,0.0,15.0,96,0.00,,,0.02,Wunderground v.1.15,2013-07-02 09:25:00,
2013-07-02 05:35:00,72.9,71.7,30.03,WNW,287,0.0,15.0,96,0.00,,,0.02,Wunderground v.1.15,2013-07-02 09:35:00,
2013-07-02 05:40:00,73.0,71.8,30.03,WNW,287,0.0,15.0,96,0.00,,,0.02,Wunderground v.1.15,2013-07-02 09:40:00,
2013-07-02 05:45:00,72.9,71.7,30.03,WNW,287,0.0,15.0,96,0.00,,,0.02,Wunderground v.1.15,2013-07-02 09:45:00,
2013-07-02 05:50:00,72.9,71.7,30.03,WNW,287,0.0,15.0,96,0.00,,,0.02,Wunderground v.1.15,2013-07-02 09:50:00,
2013-07-02 05:55:00,72.9,71.7,30.03,WNW,287,0.0,15.0,96,0.00,,,0.02,Wunderground v.1.15,2013-07-02 09:55:00,
2013-07-02 06:00:00,72.9,71.7,30.03,WNW,287,0.0,15.0,96,0.00,,,0.02,Wunderground v.1.15,2013-07-02 10:00:00,
2013-07-02 06:10:00,72.9,71.7,30.03,WNW,287,0.0,15.0,96,0.00,,,0.02,Wunderground v.1.15,2013-07-02 10:10:00,
2013-07-02 06:15:00,72.9,71.7,30.04,WNW,287,0.0,15.0,96,0.00,,,0.02,Wunderground v.1.15,2013-07-02 10:15:00,
2013-07-02 06:20:00,73.0,71.8,30.03,WNW,287,0.0,15.0,96,0.00,,,0.02,Wunderground v.1.15,2013-07-02 10:20:00,
2013-07-02 06:25:00,73.0,71.8,30.04,WNW,287,0.0,15.0,96,0.00,,,0.02,Wunderground v.1.15,2013-07-02 10:25:00,
2013-07-02 06:35:00,73.0,71.8,30.04,WNW,287,0.0,15.0,96,0.00,,,0.02,Wunderground v.1.15,2013-07-02 10:35:00,
2013-07-02 06:45:00,73.0,71.8,30.04,WNW,288,0.0,15.0,96,0.00,,,0.02,Wunderground v.1.15,2013-07-02 10:45:00,
2013-07-02 06:50:00,73.1,71.9,30.05,WNW,287,0.0,15.0,96,0.00,,,0.02,Wunderground v.1.15,2013-07-02 10:50:00,
2013-07-02 06:55:00,73.1,71.9,30.05,WNW,287,0.0,15.0,96,0.00,,,0.02,Wunderground v.1.15,2013-07-02 10:55:00,
2013-07-02 07:00:00,73.1,71.9,30.05,WNW,287,0.0,0.0,96,0.00,,,0.02,Wunderground v.1.15,2013-07-02 11:00:00,
2013-07-02 07:05:00,73.1,71.9,30.05,WNW,287,0.0,2.0,96,0.00,,,0.02,Wunderground v.1.15,2013-07-02 11:05:00,
2013-07-02 07:15:00,73.2,72.0,30.05,WNW,287,0.0,0.0,96,0.00,,,0.02,Wunderground v.1.15,2013-07-02 11:15:00,
2013-07-02 07:20:00,73.3,72.1,30.06,WNW,287,0.0,0.0,96,0.00,,,0.02,Wunderground v.1.15,2013-07-02 11:20:00,
2013-07-02 07:25:00,73.3,72.1,30.06,WNW,287,0.0,0.0,96,0.00,,,0.02,Wunderground v.1.15,2013-07-02 11:25:00,
2013-07-02 07:35:00,73.5,72.3,30.06,WNW,287,0.0,0.0,96,0.00,,,0.02,Wunderground v.1.15,2013-07-02 11:35:00,
2013-07-02 07:40:00,73.5,72.3,30.06,WNW,287,0.0,0.0,96,0.00,,,0.02,Wunderground v.1.15,2013-07-02 11:40:00,
2013-07-02 07:45:00,73.6,72.4,30.07,WNW,287,0.0,0.0,96,0.00,,,0.02,Wunderground v.1.15,2013-07-02 11:45:00,
2013-07-02 07:50:00,73.7,72.5,30.07,WNW,287,0.0,0.0,96,0.00,,,0.02,Wunderground v.1.15,2013-07-02 11:50:00,
2013-07-02 07:55:00,73.8,72.6,30.07,WNW,288,0.0,2.0,96,0.00,,,0.02,Wunderground v.1.15,2013-07-02 11:55:00,
2013-07-02 08:00:00,73.9,72.7,30.07,WNW,291,0.0,0.0,96,0.00,,,0.02,Wunderground v.1.15,2013-07-02 12:00:00,
2013-07-02 08:05:00,74.0,72.8,30.07,WNW,303,0.0,1.0,96,0.00,,,0.02,Wunderground v.1.15,2013-07-02 12:05:00,
2013-07-02 08:10:00,74.1,72.9,30.07,WNW,303,0.0,1.0,96,0.00,,,0.02,Wunderground v.1.15,2013-07-02 12:10:00,
2013-07-02 08:15:00,74.2,73.0,30.07,WNW,303,0.0,1.0,96,0.00,,,0.02,Wunderground v.1.15,2013-07-02 12:15:00,
2013-07-02 08:20:00,74.4,73.2,30.07,WNW,303,0.0,1.0,96,0.00,,,0.02,Wunderground v.1.15,2013-07-02 12:20:00,
2013-07-02 08:25:00,74.6,73.4,30.07,WNW,303,0.0,1.0,96,0.00,,,0.02,Wunderground v.1.15,2013-07-02 12:25:00,
2013-07-02 08:35:00,74.9,73.7,30.08,NW,306,0.0,1.0,96,0.00,,,0.02,Wunderground v.1.15,2013-07-02 12:35:00,
2013-07-02 08:40:00,75.0,73.8,30.08,NW,306,0.0,1.0,96,0.00,,,0.02,Wunderground v.1.15,2013-07-02 12:40:00,
2013-07-02 08:50:00,75.2,74.0,30.08,NW,310,0.0,1.0,96,0.00,,,0.02,Wunderground v.1.15,2013-07-02 12:50:00,
2013-07-02 08:55:00,75.2,74.0,30.09,NW,321,0.0,1.0,96,0.00,,,0.02,Wunderground v.1.15,2013-07-02 12:55:00,
2013-07-02 09:05:00,75.4,74.2,30.08,NW,321,0.0,1.0,96,0.00,,,0.02,Wunderground v.1.15,2013-07-02 13:05:00,
2013-07-02 09:10:00,75.6,74.4,30.09,NW,321,0.0,1.0,96,0.00,,,0.02,Wunderground v.1.15,2013-07-02 13:10:00,
2013-07-02 09:15:00,75.6,74.4,30.09,NW,321,0.0,1.0,96,0.00,,,0.02,Wunderground v.1.15,2013-07-02 13:15:00,
2013-07-02 09:20:00,75.7,74.8,30.09,NW,321,0.0,1.0,97,0.00,,,0.02,Wunderground v.1.15,2013-07-02 13:20:00,
2013-07-02 09:25:00,75.9,75.0,30.09,NW,321,0.0,1.0,97,0.00,,,0.02,Wunderground v.1.15,2013-07-02 13:25:00,
2013-07-02 09:30:00,76.0,74.8,30.09,NW,322,0.0,1.0,96,0.00,,,0.02,Wunderground v.1.15,2013-07-02 13:30:00,
2013-07-02 09:35:00,76.2,75.0,30.09,NW,322,0.0,1.0,96,0.00,,,0.02,Wunderground v.1.15,2013-07-02 13:35:00,
2013-07-02 09:40:00,76.3,75.1,30.09,NW,322,0.0,1.0,96,0.00,,,0.02,Wunderground v.1.15,2013-07-02 13:40:00,
2013-07-02 09:45:00,76.5,75.6,30.09,NW,322,0.0,1.0,97,0.00,,,0.02,Wunderground v.1.15,2013-07-02 13:45:00,
2013-07-02 09:50:00,76.6,75.7,30.10,NW,322,0.0,1.0,97,0.00,,,0.02,Wunderground v.1.15,2013-07-02 13:50:00,
2013-07-02 09:55:00,76.8,75.6,30.10,NW,322,0.0,1.0,96,0.00,,,0.02,Wunderground v.1.15,2013-07-02 13:55:00,
2013-07-02 10:00:00,77.0,76.1,30.10,NW,322,0.0,1.0,97,0.00,,,0.02,Wunderground v.1.15,2013-07-02 14:00:00,
2013-07-02 10:05:00,77.1,75.9,30.09,NW,322,0.0,1.0,96,0.00,,,0.02,Wunderground v.1.15,2013-07-02 14:05:00,
2013-07-02 10:15:00,77.4,76.2,30.09,NW,322,0.0,1.0,96,0.00,,,0.02,Wunderground v.1.15,2013-07-02 14:15:00,
2013-07-02 10:20:00,77.4,76.2,30.10,NW,322,0.0,1.0,96,0.00,,,0.02,Wunderground v.1.15,2013-07-02 14:20:00,
2013-07-02 10:25:00,77.5,76.3,30.09,NW,322,0.0,1.0,96,0.00,,,0.02,Wunderground v.1.15,2013-07-02 14:25:00,
2013-07-02 10:30:00,77.6,76.4,30.10,NW,322,0.0,1.0,96,0.00,,,0.02,Wunderground v.1.15,2013-07-02 14:30:00,
2013-07-02 10:35:00,77.8,76.6,30.10,NW,322,0.0,1.0,96,0.00,,,0.02,Wunderground v.1.15,2013-07-02 14:35:00,
2013-07-02 10:40:00,78.0,76.8,30.10,WNW,297,1.0,1.0,96,0.00,,,0.02,Wunderground v.1.15,2013-07-02 14:40:00,
2013-07-02 10:45:00,78.2,77.0,30.10,WNW,297,1.0,1.0,96,0.00,,,0.02,Wunderground v.1.15,2013-07-02 14:45:00,
2013-07-02 10:50:00,78.4,77.2,30.10,WNW,297,0.0,1.0,96,0.00,,,0.02,Wunderground v.1.15,2013-07-02 14:50:00,
2013-07-02 11:00:00,79.1,77.9,30.10,NNW,334,1.0,1.0,96,0.00,,,0.02,Wunderground v.1.15,2013-07-02 15:00:00,
2013-07-02 11:05:00,79.4,78.2,30.10,NE,43,0.0,3.0,96,0.00,,,0.02,Wunderground v.1.15,2013-07-02 15:05:00,
2013-07-02 11:10:00,79.6,78.4,30.10,North,351,1.0,1.0,96,0.00,,,0.02,Wunderground v.1.15,2013-07-02 15:10:00,
2013-07-02 11:20:00,80.2,79.0,30.10,NNW,327,0.0,1.0,96,0.00,,,0.02,Wunderground v.1.15,2013-07-02 15:20:00,
2013-07-02 11:25:00,80.5,79.3,30.10,WNW,285,1.0,1.0,96,0.00,,,0.02,Wunderground v.1.15,2013-07-02 15:25:00,
2013-07-02 11:30:00,80.6,79.0,30.09,NNW,328,1.0,2.0,95,0.00,,,0.02,Wunderground v.1.15,2013-07-02 15:30:00,
2013-07-02 11:35:00,80.9,79.3,30.10,West,281,1.0,2.0,95,0.00,,,0.02,Wunderground v.1.15,2013-07-02 15:35:00,
2013-07-02 11:40:00,81.2,79.3,30.09,NW,308,2.0,2.0,94,0.00,,,0.02,Wunderground v.1.15,2013-07-02 15:40:00,
2013-07-02 11:45:00,81.5,79.3,30.09,NNW,345,2.0,2.0,93,0.00,,,0.02,Wunderground v.1.15,2013-07-02 15:45:00,
2013-07-02 11:50:00,82.1,79.9,30.09,NW,317,1.0,3.0,93,0.00,,,0.02,Wunderground v.1.15,2013-07-02 15:50:00,
2013-07-02 11:55:00,82.7,79.8,30.09,NE,37,1.0,3.0,91,0.00,,,0.02,Wunderground v.1.15,2013-07-02 15:55:00,
2013-07-02 12:00:00,83.3,79.7,30.09,NNW,330,2.0,7.0,89,0.00,,,0.02,Wunderground v.1.15,2013-07-02 16:00:00,
2013-07-02 12:05:00,83.7,79.4,30.09,NNW,337,3.0,7.0,87,0.00,,,0.02,Wunderground v.1.15,2013-07-02 16:05:00,
2013-07-02 12:10:00,84.2,79.6,30.09,NW,322,2.0,2.0,86,0.00,,,0.02,Wunderground v.1.15,2013-07-02 16:10:00,
2013-07-02 12:15:00,84.8,79.8,30.09,NNW,333,2.0,2.0,85,0.00,,,0.02,Wunderground v.1.15,2013-07-02 16:15:00,
2013-07-02 12:20:00,85.1,79.0,30.08,West,270,2.0,2.0,82,0.00,,,0.02,Wunderground v.1.15,2013-07-02 16:20:00,
2013-07-02 12:30:00,86.0,79.1,30.09,NW,308,1.0,3.0,80,0.00,,,0.02,Wunderground v.1.15,2013-07-02 16:30:00,
2013-07-02 12:40:00,86.4,78.3,30.09,NNW,332,2.0,2.0,77,0.00,,,0.02,Wunderground v.1.15,2013-07-02 16:40:00,
2013-07-02 12:45:00,86.4,78.3,30.09,North,349,2.0,2.0,77,0.00,,,0.02,Wunderground v.1.15,2013-07-02 16:45:00,
2013-07-02 12:50:00,86.3,78.2,30.09,NW,312,3.0,3.0,77,0.00,,,0.02,Wunderground v.1.15,2013-07-02 16:50:00,
2013-07-02 12:55:00,86.2,78.1,30.09,NNW,327,2.0,5.0,77,0.00,,,0.02,Wunderground v.1.15,2013-07-02 16:55:00,
2013-07-02 13:00:00,86.0,77.5,30.09,NNW,328,2.0,2.0,76,0.00,,,0.02,Wunderground v.1.15,2013-07-02 17:00:00,
2013-07-02 13:05:00,86.0,78.3,30.09,North,2,2.0,2.0,78,0.00,,,0.02,Wunderground v.1.15,2013-07-02 17:05:00,
2013-07-02 13:10:00,86.3,78.6,30.09,NNE,12,1.0,1.0,78,0.00,,,0.02,Wunderground v.1.15,2013-07-02 17:10:00,
2013-07-02 13:15:00,86.5,78.8,30.09,NW,326,1.0,1.0,78,0.00,,,0.02,Wunderground v.1.15,2013-07-02 17:15:00,
2013-07-02 13:20:00,86.5,78.0,30.10,NE,53,2.0,3.0,76,0.00,,,0.02,Wunderground v.1.15,2013-07-02 17:20:00,
2013-07-02 13:25:00,86.5,77.6,30.09,North,2,3.0,3.0,75,0.00,,,0.02,Wunderground v.1.15,2013-07-02 17:25:00,
2013-07-02 13:30:00,86.4,77.5,30.09,North,355,3.0,4.0,75,0.00,,,0.02,Wunderground v.1.15,2013-07-02 17:30:00,
2013-07-02 13:40:00,85.9,77.1,30.08,NW,305,3.0,3.0,75,0.00,,,0.02,Wunderground v.1.15,2013-07-02 17:40:00,
2013-07-02 13:50:00,84.0,74.4,30.09,North,352,5.0,7.0,73,0.00,,,0.02,Wunderground v.1.15,2013-07-02 17:50:00,
2013-07-02 13:55:00,83.2,74.4,30.09,NW,316,4.0,7.0,75,0.00,,,0.02,Wunderground v.1.15,2013-07-02 17:55:00,
2013-07-02 14:00:00,82.3,74.0,30.09,WNW,303,4.0,4.0,76,0.00,,,0.02,Wunderground v.1.15,2013-07-02 18:00:00,
2013-07-02 14:05:00,81.6,74.1,30.10,NNW,333,2.0,4.0,78,0.00,,,0.02,Wunderground v.1.15,2013-07-02 18:05:00,
2013-07-02 14:10:00,81.0,74.2,30.10,North,349,2.0,3.0,80,0.00,,,0.02,Wunderground v.1.15,2013-07-02 18:10:00,
2013-07-02 14:15:00,80.5,74.1,30.10,NNW,329,2.0,3.0,81,0.00,,,0.03,Wunderground v.1.15,2013-07-02 18:15:00,
2013-07-02 14:25:00,79.2,73.6,30.10,North,11,2.0,5.0,83,0.10,,,0.05,Wunderground v.1.15,2013-07-02 18:25:00,
2013-07-02 14:30:00,78.8,73.6,30.10,NNE,12,2.0,2.0,84,0.07,,,0.05,Wunderground v.1.15,2013-07-02 18:30:00,
2013-07-02 14:40:00,78.0,73.5,30.10,NNW,337,2.0,2.0,86,0.06,,,0.06,Wunderground v.1.15,2013-07-02 18:40:00,
2013-07-02 14:45:00,77.8,73.6,30.11,WNW,299,1.0,2.0,87,0.04,,,0.06,Wunderground v.1.15,2013-07-02 18:45:00,
2013-07-02 14:55:00,77.9,74.1,30.11,NW,322,1.0,1.0,88,0.00,,,0.06,Wunderground v.1.15,2013-07-02 18:55:00,
2013-07-02 15:00:00,77.8,74.3,30.11,NW,316,1.0,12.0,89,0.00,,,0.06,Wunderground v.1.15,2013-07-02 19:00:00,
2013-07-02 15:05:00,77.6,74.1,30.11,NNW,327,2.0,12.0,89,0.00,,,0.06,Wunderground v.1.15,2013-07-02 19:05:00,
2013-07-02 15:15:00,76.9,73.1,30.11,NW,316,4.0,4.0,88,0.00,,,0.06,Wunderground v.1.15,2013-07-02 19:15:00,
2013-07-02 15:20:00,76.6,73.1,30.11,NW,311,3.0,3.0,89,0.00,,,0.06,Wunderground v.1.15,2013-07-02 19:20:00,
2013-07-02 15:25:00,76.5,73.0,30.10,WNW,293,2.0,3.0,89,0.00,,,0.06,Wunderground v.1.15,2013-07-02 19:25:00,
2013-07-02 15:30:00,76.3,72.8,30.10,WNW,293,2.0,2.0,89,0.00,,,0.06,Wunderground v.1.15,2013-07-02 19:30:00,
2013-07-02 15:35:00,76.2,72.7,30.09,NNE,27,2.0,2.0,89,0.00,,,0.06,Wunderground v.1.15,2013-07-02 19:35:00,
2013-07-02 15:40:00,76.1,73.0,30.09,NW,307,2.0,3.0,90,0.00,,,0.06,Wunderground v.1.15,2013-07-02 19:40:00,
2013-07-02 15:45:00,76.0,72.9,30.09,WNW,285,2.0,3.0,90,0.00,,,0.06,Wunderground v.1.15,2013-07-02 19:45:00,
2013-07-02 15:50:00,75.9,72.8,30.09,West,277,2.0,2.0,90,0.00,,,0.06,Wunderground v.1.15,2013-07-02 19:50:00,
2013-07-02 16:00:00,76.1,73.3,30.08,WNW,288,1.0,1.0,91,0.00,,,0.06,Wunderground v.1.15,2013-07-02 20:00:00,
2013-07-02 16:05:00,76.2,73.4,30.08,NW,310,0.0,1.0,91,0.00,,,0.06,Wunderground v.1.15,2013-07-02 20:05:00,
2013-07-02 16:15:00,76.4,73.6,30.08,NNW,339,0.0,2.0,91,0.00,,,0.06,Wunderground v.1.15,2013-07-02 20:15:00,
2013-07-02 16:20:00,76.5,73.7,30.08,WNW,303,0.0,1.0,91,0.00,,,0.06,Wunderground v.1.15,2013-07-02 20:20:00,
2013-07-02 16:25:00,76.7,73.9,30.08,West,266,0.0,1.0,91,0.00,,,0.06,Wunderground v.1.15,2013-07-02 20:25:00,
2013-07-02 16:30:00,76.9,74.1,30.08,NW,320,0.0,2.0,91,0.00,,,0.06,Wunderground v.1.15,2013-07-02 20:30:00,
2013-07-02 16:35:00,77.2,74.4,30.07,West,270,1.0,2.0,91,0.00,,,0.06,Wunderground v.1.15,2013-07-02 20:35:00,
2013-07-02 16:40:00,77.6,74.8,30.07,West,270,1.0,2.0,91,0.00,,,0.06,Wunderground v.1.15,2013-07-02 20:40:00,
2013-07-02 16:45:00,78.1,75.3,30.07,NW,321,1.0,2.0,91,0.00,,,0.06,Wunderground v.1.15,2013-07-02 20:45:00,
2013-07-02 16:50:00,78.5,75.3,30.07,NW,323,1.0,5.0,90,0.00,,,0.06,Wunderground v.1.15,2013-07-02 20:50:00,
2013-07-02 16:55:00,79.2,75.7,30.07,NNW,333,2.0,5.0,89,0.00,,,0.06,Wunderground v.1.15,2013-07-02 20:55:00,
2013-07-02 17:00:00,79.8,75.9,30.07,WNW,291,2.0,2.0,88,0.00,,,0.06,Wunderground v.1.15,2013-07-02 21:00:00,
2013-07-02 17:05:00,80.3,75.7,30.08,West,266,1.0,2.0,86,0.00,,,0.06,Wunderground v.1.15,2013-07-02 21:05:00,
2013-07-02 17:10:00,80.5,75.2,30.08,NW,307,1.0,3.0,84,0.00,,,0.06,Wunderground v.1.15,2013-07-02 21:10:00,
2013-07-02 17:20:00,81.1,75.4,30.09,North,5,2.0,2.0,83,0.00,,,0.06,Wunderground v.1.15,2013-07-02 21:20:00,
2013-07-02 17:25:00,81.3,75.3,30.09,North,355,2.0,2.0,82,0.00,,,0.06,Wunderground v.1.15,2013-07-02 21:25:00,
2013-07-02 17:35:00,81.7,74.9,30.08,NNW,332,1.0,2.0,80,0.00,,,0.06,Wunderground v.1.15,2013-07-02 21:35:00,
2013-07-02 17:40:00,82.0,75.2,30.08,NNW,332,0.0,1.0,80,0.00,,,0.06,Wunderground v.1.15,2013-07-02 21:40:00,
2013-07-02 17:45:00,82.2,75.4,30.08,NNW,335,0.0,1.0,80,0.00,,,0.06,Wunderground v.1.15,2013-07-02 21:45:00,
2013-07-02 17:50:00,82.2,75.0,30.08,NNW,341,0.0,1.0,79,0.00,,,0.06,Wunderground v.1.15,2013-07-02 21:50:00,
2013-07-02 17:55:00,82.2,75.0,30.08,NNW,339,0.0,1.0,79,0.00,,,0.06,Wunderground v.1.15,2013-07-02 21:55:00,
2013-07-02 18:00:00,82.3,74.7,30.09,NW,321,0.0,1.0,78,0.00,,,0.06,Wunderground v.1.15,2013-07-02 22:00:00,
2013-07-02 18:05:00,82.3,74.7,30.09,NW,321,0.0,3.0,78,0.00,,,0.06,Wunderground v.1.15,2013-07-02 22:05:00,
2013-07-02 18:10:00,82.3,74.7,30.08,NW,321,0.0,1.0,78,0.00,,,0.06,Wunderground v.1.15,2013-07-02 22:10:00,
2013-07-02 18:15:00,82.3,75.1,30.08,NW,321,0.0,1.0,79,0.00,,,0.06,Wunderground v.1.15,2013-07-02 22:15:00,
2013-07-02 18:25:00,82.0,74.8,30.09,NNW,328,0.0,2.0,79,0.00,,,0.06,Wunderground v.1.15,2013-07-02 22:25:00,
2013-07-02 18:30:00,81.9,74.4,30.09,NW,321,0.0,1.0,78,0.00,,,0.06,Wunderground v.1.15,2013-07-02 22:30:00,
2013-07-02 18:40:00,81.8,74.6,30.10,NW,321,0.0,1.0,79,0.00,,,0.06,Wunderground v.1.15,2013-07-02 22:40:00,
2013-07-02 18:45:00,81.8,74.6,30.10,NW,321,0.0,1.0,79,0.00,,,0.06,Wunderground v.1.15,2013-07-02 22:45:00,
2013-07-02 18:50:00,81.7,74.5,30.10,NW,321,0.0,1.0,79,0.00,,,0.06,Wunderground v.1.15,2013-07-02 22:50:00,
2013-07-02 18:55:00,81.5,74.4,30.10,NW,321,0.0,1.0,79,0.00,,,0.06,Wunderground v.1.15,2013-07-02 22:55:00,
2013-07-02 19:00:00,81.3,74.5,30.10,NW,321,0.0,1.0,80,0.00,,,0.06,Wunderground v.1.15,2013-07-02 23:00:00,
2013-07-02 19:05:00,81.2,74.4,30.11,NW,321,0.0,1.0,80,0.00,,,0.06,Wunderground v.1.15,2013-07-02 23:05:00,
2013-07-02 19:15:00,80.7,74.0,30.11,WNW,302,0.0,1.0,80,0.00,,,0.06,Wunderground v.1.15,2013-07-02 23:15:00,
2013-07-02 19:20:00,80.6,73.9,30.11,WNW,302,0.0,1.0,80,0.00,,,0.06,Wunderground v.1.15,2013-07-02 23:20:00,
2013-07-02 19:25:00,80.5,74.1,30.11,WNW,302,0.0,1.0,81,0.00,,,0.06,Wunderground v.1.15,2013-07-02 23:25:00,
2013-07-02 19:30:00,80.2,73.8,30.11,WNW,303,0.0,1.0,81,0.00,,,0.06,Wunderground v.1.15,2013-07-02 23:30:00,
2013-07-02 19:35:00,80.0,73.6,30.11,WNW,303,0.0,1.0,81,0.00,,,0.06,Wunderground v.1.15,2013-07-02 23:35:00,
2013-07-02 19:40:00,79.9,73.9,30.11,WNW,303,0.0,1.0,82,0.00,,,0.06,Wunderground v.1.15,2013-07-02 23:40:00,
2013-07-02 19:45:00,79.8,73.8,30.11,WNW,303,0.0,1.0,82,0.00,,,0.06,Wunderground v.1.15,2013-07-02 23:45:00,
2013-07-02 19:50:00,79.7,73.7,30.12,WNW,303,0.0,1.0,82,0.00,,,0.06,Wunderground v.1.15,2013-07-02 23:50:00,
2013-07-02 19:55:00,79.6,74.0,30.12,WNW,303,0.0,1.0,83,0.00,,,0.06,Wunderground v.1.15,2013-07-02 23:55:00,
2013-07-02 20:00:00,79.4,73.8,30.12,WNW,303,0.0,1.0,83,0.00,,,0.06,Wunderground v.1.15,2013-07-03 00:00:00,
2013-07-02 20:05:00,79.3,73.7,30.13,WNW,303,0.0,1.0,83,0.00,,,0.06,Wunderground v.1.15,2013-07-03 00:05:00,
2013-07-02 20:10:00,79.0,73.7,30.13,WNW,303,0.0,1.0,84,0.00,,,0.06,Wunderground v.1.15,2013-07-03 00:10:00,
2013-07-02 20:15:00,78.8,73.6,30.13,WNW,303,0.0,1.0,84,0.00,,,0.06,Wunderground v.1.15,2013-07-03 00:15:00,
2013-07-02 20:20:00,78.7,73.5,30.13,WNW,303,0.0,1.0,84,0.00,,,0.06,Wunderground v.1.15,2013-07-03 00:20:00,
2013-07-02 20:25:00,78.5,73.3,30.14,WNW,303,0.0,1.0,84,0.00,,,0.06,Wunderground v.1.15,2013-07-03 00:25:00,
2013-07-02 20:35:00,78.3,73.4,30.13,WNW,303,0.0,1.0,85,0.00,,,0.06,Wunderground v.1.15,2013-07-03 00:35:00,
2013-07-02 20:40:00,78.2,73.3,30.13,WNW,303,0.0,1.0,85,0.00,,,0.06,Wunderground v.1.15,2013-07-03 00:40:00,
2013-07-02 20:45:00,78.1,73.2,30.13,WNW,303,0.0,1.0,85,0.00,,,0.06,Wunderground v.1.15,2013-07-03 00:45:00,
2013-07-02 20:50:00,78.0,73.5,30.13,WNW,303,0.0,1.0,86,0.00,,,0.06,Wunderground v.1.15,2013-07-03 00:50:00,
2013-07-02 20:55:00,77.8,73.3,30.13,WNW,303,0.0,1.0,86,0.00,,,0.06,Wunderground v.1.15,2013-07-03 00:55:00,
2013-07-02 21:00:00,77.8,73.3,30.13,WNW,303,0.0,1.0,86,0.00,,,0.06,Wunderground v.1.15,2013-07-03 01:00:00,
2013-07-02 21:05:00,77.6,73.4,30.13,WNW,303,0.0,1.0,87,0.00,,,0.06,Wunderground v.1.15,2013-07-03 01:05:00,
2013-07-02 21:10:00,77.6,73.4,30.13,WNW,303,0.0,1.0,87,0.00,,,0.06,Wunderground v.1.15,2013-07-03 01:10:00,
2013-07-02 21:20:00,77.3,73.1,30.12,WNW,303,0.0,1.0,87,0.00,,,0.06,Wunderground v.1.15,2013-07-03 01:20:00,
2013-07-02 21:25:00,77.2,73.0,30.12,WNW,303,0.0,1.0,87,0.00,,,0.06,Wunderground v.1.15,2013-07-03 01:25:00,
2013-07-02 21:30:00,77.1,72.9,30.13,WNW,303,0.0,1.0,87,0.00,,,0.06,Wunderground v.1.15,2013-07-03 01:30:00,
2013-07-02 21:40:00,76.9,73.1,30.13,WNW,303,0.0,1.0,88,0.00,,,0.06,Wunderground v.1.15,2013-07-03 01:40:00,
2013-07-02 21:45:00,76.8,73.0,30.13,WNW,303,0.0,2.0,88,0.00,,,0.06,Wunderground v.1.15,2013-07-03 01:45:00,
2013-07-02 21:50:00,76.7,73.2,30.13,WNW,303,0.0,1.0,89,0.00,,,0.06,Wunderground v.1.15,2013-07-03 01:50:00,
2013-07-02 22:00:00,76.6,73.1,30.13,WNW,301,0.0,1.0,89,0.00,,,0.06,Wunderground v.1.15,2013-07-03 02:00:00,
2013-07-02 22:05:00,76.4,72.9,30.13,WNW,301,0.0,1.0,89,0.00,,,0.06,Wunderground v.1.15,2013-07-03 02:05:00,
2013-07-02 22:10:00,76.3,73.1,30.13,WNW,301,0.0,1.0,90,0.00,,,0.06,Wunderground v.1.15,2013-07-03 02:10:00,
2013-07-02 22:15:00,76.2,72.7,30.13,WNW,301,0.0,1.0,89,0.00,,,0.06,Wunderground v.1.15,2013-07-03 02:15:00,
2013-07-02 22:20:00,76.0,72.9,30.13,WNW,295,0.0,1.0,90,0.00,,,0.06,Wunderground v.1.15,2013-07-03 02:20:00,
2013-07-02 22:25:00,76.0,72.9,30.13,WNW,295,0.0,1.0,90,0.00,,,0.06,Wunderground v.1.15,2013-07-03 02:25:00,
2013-07-02 22:30:00,75.8,72.7,30.13,WNW,295,0.0,1.0,90,0.00,,,0.06,Wunderground v.1.15,2013-07-03 02:30:00,
2013-07-02 22:35:00,75.7,72.6,30.12,WNW,295,0.0,1.0,90,0.00,,,0.06,Wunderground v.1.15,2013-07-03 02:35:00,
2013-07-02 22:40:00,75.6,72.5,30.12,WNW,295,0.0,1.0,90,0.00,,,0.06,Wunderground v.1.15,2013-07-03 02:40:00,
2013-07-02 22:45:00,75.6,72.5,30.12,WNW,295,0.0,1.0,90,0.00,,,0.06,Wunderground v.1.15,2013-07-03 02:45:00,
2013-07-02 22:55:00,75.5,72.7,30.12,WNW,295,0.0,1.0,91,0.00,,,0.06,Wunderground v.1.15,2013-07-03 02:55:00,
2013-07-02 23:00:00,75.3,72.5,30.12,WNW,295,0.0,1.0,91,0.00,,,0.06,Wunderground v.1.15,2013-07-03 03:00:00,
2013-07-02 23:05:00,75.2,72.4,30.12,WNW,295,0.0,1.0,91,0.00,,,0.06,Wunderground v.1.15,2013-07-03 03:05:00,
2013-07-02 23:15:00,75.1,72.3,30.12,WNW,295,0.0,1.0,91,0.00,,,0.06,Wunderground v.1.15,2013-07-03 03:15:00,
2013-07-02 23:20:00,75.1,72.6,30.13,WNW,295,0.0,1.0,92,0.00,,,0.06,Wunderground v.1.15,2013-07-03 03:20:00,
2013-07-02 23:25:00,75.1,72.6,30.13,WNW,295,0.0,1.0,92,0.00,,,0.06,Wunderground v.1.15,2013-07-03 03:25:00,
2013-07-02 23:30:00,75.1,72.6,30.13,WNW,295,0.0,1.0,92,0.00,,,0.06,Wunderground v.1.15,2013-07-03 03:30:00,
2013-07-02 23:35:00,75.0,72.5,30.12,WNW,295,0.0,1.0,92,0.00,,,0.06,Wunderground v.1.15,2013-07-03 03:35:00,
2013-07-02 23:40:00,75.0,72.5,30.13,WNW,295,0.0,1.0,92,0.00,,,0.06,Wunderground v.1.15,2013-07-03 03:40:00,
2013-07-02 23:50:00,74.9,72.4,30.13,WNW,295,0.0,1.0,92,0.00,,,0.06,Wunderground v.1.15,2013-07-03 03:50:00,
2013-07-02 23:55:00,75.0,72.8,30.12,WNW,295,0.0,1.0,93,0.00,,,0.06,Wunderground v.1.15,2013-07-03 03:55:00,